Turner Valley, Canada
Current Conditions -  °F | °C
As of 6:00 AM on Friday 24 Oct 2014 (Local Time) from CYBW Reporting Station
Clear Clear  
Wind Chill: 23°   Ceiling: Unl
Heat Index: 32°   Visibility: 9mi
Dew Point: 21°   Wind: 12mph
Humidity: 64%   Direction: 270°W
Pressure: 29.78"   Gusts: NA
Location:  50.68°N, 114.27°W
Report Text: CYBW 241200Z AUTO 27010KT 9SM CLR 00/M06 A2978 RMK SLP118
Loading
Personal Weather Stations






























Interactive Weather Map
Tropical Storm Tracking
New forecast layout! Learn more

10-Day Weather Forecast

Advertisements
Track Severe Weather on mobile